Time;durP1;ratioP1;P1;durP2;ratioP2;P2;SDS_P1;SDS_P2;PMS_P1;PMS_P2;Temp;Humidity;BMP_temperature;BMP_pressure;BME280_temperature;BME280_humidity;BME280_pressure;Samples;Min_cycle;Max_cycle;Signal;HPM_P1;HPM_P2
2024/03/02 00:06:21;;;;;;;2.95;1.70;;;;;;;9.30;59.50;93795.69;6282908;22;20027;-86
2024/03/02 00:08:47;;;;;;;1.73;1.50;;;;;;;9.42;59.16;93782.06;6218884;23;20028;-87
2024/03/02 00:11:14;;;;;;;1.73;1.50;;;;;;;9.31;59.56;93781.72;6219051;23;20038;-87
2024/03/02 00:13:39;;;;;;;3.03;1.60;;;;;;;9.42;59.46;93788.03;6194111;23;20027;-87
2024/03/02 00:16:05;;;;;;;1.55;1.45;;;;;;;9.45;59.52;93784.25;6245247;22;20016;-86
2024/03/02 00:18:32;;;;;;;2.70;1.98;;;;;;;9.46;59.51;93778.06;6244230;23;20082;-87
2024/03/02 00:20:59;;;;;;;1.80;1.40;;;;;;;9.48;59.63;93776.03;6243767;23;20012;-87
2024/03/02 00:23:29;;;;;;;1.77;1.25;;;;;;;9.32;59.59;93774.72;6218957;23;20019;-87
2024/03/02 00:42:25;;;;;;;1.33;1.23;;;;;;;9.05;60.84;93798.13;6244622;22;20044;-87
2024/03/02 01:23:20;;;;;;;17.90;11.73;;;;;;;9.03;63.37;93853.81;6305442;22;20024;-86
2024/03/02 01:25:47;;;;;;;19.08;12.30;;;;;;;9.10;62.68;93859.78;6279475;22;20003;-87
2024/03/02 01:28:12;;;;;;;18.38;11.45;;;;;;;9.07;63.09;93855.00;6253627;22;20018;-87
2024/03/02 01:58:28;;;;;;;10.27;7.72;;;;;;;9.53;60.65;93861.88;6229193;22;1714809;-86
2024/03/02 02:00:53;;;;;;;11.85;8.70;;;;;;;9.60;60.51;93862.66;6223565;22;20023;-87
2024/03/02 02:03:19;;;;;;;13.73;8.50;;;;;;;9.63;60.91;93854.47;6223722;22;20034;-87
2024/03/02 02:05:46;;;;;;;12.80;8.45;;;;;;;9.64;60.75;93852.69;6223011;22;20012;-87
2024/03/02 02:18:24;;;;;;;11.30;8.30;;;;;;;9.45;61.14;93854.34;6243523;22;20024;-87
2024/03/02 02:20:49;;;;;;;10.43;7.93;;;;;;;9.53;60.25;93846.31;6192847;23;20003;-87
2024/03/02 02:23:15;;;;;;;10.57;7.90;;;;;;;9.59;60.39;93850.69;6192928;23;20019;-87
2024/03/02 02:25:40;;;;;;;10.75;7.80;;;;;;;9.51;60.81;93848.31;6192862;23;20008;-87
2024/03/02 02:43:27;;;;;;;9.00;6.80;;;;;;;9.26;60.70;93830.81;6220921;22;20017;-87
2024/03/02 03:11:38;;;;;;;8.15;6.22;;;;;;;9.22;60.25;93819.25;6275559;22;20091;-88
2024/03/02 03:14:04;;;;;;;8.00;6.18;;;;;;;9.39;59.86;93832.59;6212225;23;20016;-87
2024/03/02 03:21:31;;;;;;;8.00;5.90;;;;;;;9.27;59.48;93814.25;6189190;23;20021;-87
2024/03/02 03:23:56;;;;;;;7.72;5.85;;;;;;;9.08;59.86;93809.91;6162373;23;20015;-86
2024/03/02 03:26:21;;;;;;;7.78;5.30;;;;;;;8.89;60.11;93804.56;6186970;23;20013;-87
2024/03/02 03:28:47;;;;;;;6.85;5.32;;;;;;;9.18;59.14;93812.88;6187371;23;20078;-86
2024/03/02 03:31:12;;;;;;;7.28;4.88;;;;;;;9.00;59.57;93805.72;6162140;23;20013;-87
2024/03/02 03:33:41;;;;;;;6.47;4.78;;;;;;;9.03;59.58;93815.69;6163569;23;20039;-87
2024/03/02 03:36:07;;;;;;;7.55;4.75;;;;;;;9.14;59.22;93817.69;6187052;23;20019;-87
2024/03/02 04:04:55;;;;;;;3.75;2.92;;;;;;;9.15;58.87;93808.09;6211812;23;20028;-86
2024/03/02 04:07:21;;;;;;;4.10;3.10;;;;;;;9.10;59.34;93807.91;6132759;23;20048;-86
2024/03/02 04:43:10;;;;;;;3.75;2.28;;;;;;;9.01;59.34;93807.31;6228328;22;20021;-87
2024/03/02 04:45:38;;;;;;;3.00;2.30;;;;;;;9.01;59.22;93804.75;6192371;23;20038;-87
2024/03/02 04:48:04;;;;;;;2.53;2.10;;;;;;;9.07;59.16;93803.13;6216721;23;20043;-87
2024/03/02 05:08:26;;;;;;;3.35;2.60;;;;;;;8.88;59.06;93808.13;6247931;22;20008;-87
2024/03/02 05:10:53;;;;;;;3.78;2.80;;;;;;;8.87;59.05;93816.94;6193655;23;20012;-87
2024/03/02 05:13:20;;;;;;;3.05;2.10;;;;;;;8.56;60.17;93815.72;6218350;23;20008;-87
2024/03/02 05:15:46;;;;;;;3.28;2.20;;;;;;;8.56;60.12;93799.38;6193571;23;20008;-87
2024/03/02 05:31:01;;;;;;;2.90;1.90;;;;;;;8.91;58.62;93825.06;6214284;23;20032;-86
2024/03/02 05:35:55;;;;;;;2.30;2.08;;;;;;;8.76;58.77;93815.72;6244190;22;20020;-87
2024/03/02 05:38:21;;;;;;;2.13;1.92;;;;;;;8.81;58.31;93817.72;6194051;23;20012;-87
2024/03/02 05:40:50;;;;;;;2.83;2.30;;;;;;;8.74;58.78;93814.34;6194035;23;20008;-86
2024/03/02 05:43:16;;;;;;;2.08;1.80;;;;;;;8.20;60.36;93813.47;6228090;23;20087;-86
2024/03/02 06:01:14;;;;;;;4.40;1.77;;;;;;;8.03;59.97;93821.63;6184402;23;20060;-87
2024/03/02 06:03:39;;;;;;;2.03;1.70;;;;;;;8.45;59.24;93823.31;6158100;23;20021;-86
2024/03/02 06:06:05;;;;;;;2.65;1.70;;;;;;;8.38;59.33;93825.88;6133286;23;20020;-86
2024/03/02 06:08:30;;;;;;;2.28;1.67;;;;;;;8.23;59.75;93828.63;6202097;23;20032;-87
2024/03/02 06:10:58;;;;;;;2.03;1.60;;;;;;;8.19;60.01;93823.03;6133672;23;20018;-86
2024/03/02 06:13:25;;;;;;;2.95;1.70;;;;;;;8.38;58.95;93815.50;6158193;23;20009;-89
2024/03/02 06:15:54;;;;;;;1.70;1.48;;;;;;;8.47;58.98;93832.47;6158686;23;20008;-87
2024/03/02 06:18:19;;;;;;;2.80;1.70;;;;;;;8.31;59.11;93823.25;6158706;23;20036;-87
2024/03/02 06:30:56;;;;;;;2.25;1.50;;;;;;;8.52;58.88;93840.44;6219054;22;20074;-87
2024/03/02 06:33:24;;;;;;;1.80;1.48;;;;;;;8.38;59.07;93825.88;6192640;23;20004;-86
2024/03/02 06:35:49;;;;;;;2.15;1.60;;;;;;;8.40;58.68;93832.44;6192698;23;20027;-86
2024/03/02 06:38:17;;;;;;;2.20;1.70;;;;;;;8.36;59.05;93833.03;6168723;23;20004;-87
2024/03/02 06:48:20;;;;;;;1.70;1.50;;;;;;;8.11;59.71;93818.06;6268170;22;20024;-87
2024/03/02 06:50:50;;;;;;;1.85;1.40;;;;;;;8.20;59.24;93824.63;6192354;23;20016;-87
2024/03/02 06:53:19;;;;;;;1.80;1.20;;;;;;;8.32;59.67;93827.47;6193038;23;20019;-87
2024/03/02 06:55:48;;;;;;;1.58;1.20;;;;;;;8.01;60.38;93828.81;6169430;23;20004;-86
2024/03/02 06:58:15;;;;;;;2.30;1.10;;;;;;;8.15;60.37;93834.78;6217830;23;20028;-87
2024/03/02 09:53:06;;;;;;;1.90;1.70;;;;;;;16.25;45.73;93638.44;6236574;22;20024;-86
2024/03/02 09:55:34;;;;;;;2.50;1.75;;;;;;;16.61;43.27;93621.88;6186721;23;20031;-86
2024/03/02 09:57:59;;;;;;;1.73;1.20;;;;;;;16.42;41.15;93624.13;6162064;23;20021;-86
